Lolani — WDF3586 — position and weather

sailwx.info

Track history (hours):
 
Tides and Currents Weather Stations Pressure Air Temp Water Temp Dewpoint Dewpoint Depression Visibility Wind Speed Wind Dir Waves Ship Positions

Lolani

Owner: Scripps, Edward W, Bellevue, WA. More information available from US FCC via Universal Licensing System and Coast Guard Vessel Documentation Center.

Last reported at 2015-Feb-07 10:48 UTC. Time now 2015-Mar-03 16:33 UTC.
Position N 48°40' W 123°24'.
Warning: this ship's position is 24 days out of date.

Type: Sailing vessel. MMSI: 316026565.

Date/timePositionNaut miles runAvg speedWind from/ knotsBaromVisibWave heightAir tempDewpointWater temp
2015-Feb-07 10:48N 48°40' W 123°24'  
2015-Feb-04 20:33N 48°30' W 123°12'44 1.7
2015-Feb-03 18:33N 47°55' W 122°32'5 7.1
2015-Feb-03 17:47N 47°50' W 122°29'2 7.1
2015-Feb-03 17:32N 47°48' W 122°28'1 6.9
2015-Feb-03 17:22N 47°47' W 122°28'6 7.2
2015-Feb-03 16:33N 47°41' W 122°26'0 7.1
2015-Feb-03 16:32N 47°41' W 122°26'  
2015-Jan-31 22:04N 47°38' W 122°24'2 6.2
2015-Jan-31 21:43N 47°39' W 122°26'1 6.8
2015-Jan-31 21:33N 47°40' W 122°26'0 9.1
2015-Jan-31 21:33N 47°41' W 122°26'7 7.1
2015-Jan-31 20:33N 47°48' W 122°28'7 6.7
2015-Jan-31 19:33N 47°54' W 122°30'16 5.3
2015-Jan-31 16:27N 48°07' W 122°45'0 0.0
2015-Jan-31 15:27N 48°07' W 122°45'23 1.2
2015-Jan-30 20:28N 48°26' W 123°05'6 6.7
2015-Jan-30 19:33N 48°31' W 123°11'13 3.1
2015-Jan-30 15:16N 48°40' W 123°24'0 0.0
2015-Jan-29 19:28N 48°40' W 123°24'0 0.0
2015-Jan-28 13:28N 48°40' W 123°24'0 0.0
2015-Jan-28 11:22N 48°40' W 123°24'  
Track history (hours):
 
Tides and Currents Weather Stations Pressure Air Temp Water Temp Dewpoint Dewpoint Depression Visibility Wind Speed Wind Dir Waves Ship Positions

Lolani

Owner: Scripps, Edward W, Bellevue, WA. More information available from US FCC via Universal Licensing System and Coast Guard Vessel Documentation Center.

Last reported at 2015-Feb-07 10:48 UTC. Time now 2015-Mar-03 16:33 UTC.
Position N 48°40' W 123°24'.
Warning: this ship's position is 24 days out of date.

Type: Sailing vessel. MMSI: 316026565.

Date/timePositionNaut miles runAvg speedWind from/ knotsBaromVisibWave heightAir tempDewpointWater temp
2015-Feb-07 10:48N 48°40' W 123°24'  
2015-Feb-04 20:33N 48°30' W 123°12'44 1.7
2015-Feb-03 18:33N 47°55' W 122°32'5 7.1
2015-Feb-03 17:47N 47°50' W 122°29'2 7.1
2015-Feb-03 17:32N 47°48' W 122°28'1 6.9
2015-Feb-03 17:22N 47°47' W 122°28'6 7.2
2015-Feb-03 16:33N 47°41' W 122°26'0 7.1
2015-Feb-03 16:32N 47°41' W 122°26'  
2015-Jan-31 22:04N 47°38' W 122°24'2 6.2
2015-Jan-31 21:43N 47°39' W 122°26'1 6.8
2015-Jan-31 21:33N 47°40' W 122°26'0 9.1
2015-Jan-31 21:33N 47°41' W 122°26'7 7.1
2015-Jan-31 20:33N 47°48' W 122°28'7 6.7
2015-Jan-31 19:33N 47°54' W 122°30'16 5.3
2015-Jan-31 16:27N 48°07' W 122°45'0 0.0
2015-Jan-31 15:27N 48°07' W 122°45'23 1.2
2015-Jan-30 20:28N 48°26' W 123°05'6 6.7
2015-Jan-30 19:33N 48°31' W 123°11'13 3.1
2015-Jan-30 15:16N 48°40' W 123°24'0 0.0
2015-Jan-29 19:28N 48°40' W 123°24'0 0.0
2015-Jan-28 13:28N 48°40' W 123°24'0 0.0
2015-Jan-28 11:22N 48°40' W 123°24'  

Dump ship's entire track history